Time;durP1;ratioP1;P1;durP2;ratioP2;P2;SDS_P1;SDS_P2;PMS_P1;PMS_P2;Temp;Humidity;BMP_temperature;BMP_pressure;BME280_temperature;BME280_humidity;BME280_pressure;Samples;Min_cycle;Max_cycle;Signal;HPM_P1;HPM_P2
2023/04/08 00:01:38;;;;;;;9.93;7.15;;;;;;;;;;5076785;28;20097;-75
2023/04/08 00:04:04;;;;;;;10.65;6.95;;;;;;;;;;5089760;28;20036;-74
2023/04/08 00:06:30;;;;;;;10.10;7.43;;;;;;;;;;5091784;28;20429;-74
2023/04/08 00:08:56;;;;;;;11.85;7.03;;;;;;;;;;5094269;28;20102;-74
2023/04/08 00:11:22;;;;;;;12.18;8.50;;;;;;;;;;5078272;28;20044;-75
2023/04/08 00:13:48;;;;;;;10.43;7.55;;;;;;;;;;5090051;28;20089;-75
2023/04/08 00:16:15;;;;;;;14.40;7.75;;;;;;;;;;5094614;28;20359;-75
2023/04/08 00:18:41;;;;;;;12.85;8.13;;;;;;;;;;5086807;28;20046;-74
2023/04/08 00:21:07;;;;;;;11.57;8.15;;;;;;;;;;5088665;28;20474;-75
2023/04/08 00:23:33;;;;;;;12.55;8.63;;;;;;;;;;5083938;28;20048;-75
2023/04/08 00:25:59;;;;;;;10.93;8.52;;;;;;;;;;5084276;28;20052;-75
2023/04/08 00:28:25;;;;;;;13.50;8.63;;;;;;;;;;5088186;28;20053;-75
2023/04/08 00:30:52;;;;;;;12.48;8.57;;;;;;;;;;5091395;28;20049;-75
2023/04/08 00:33:18;;;;;;;12.25;9.48;;;;;;;;;;5093575;28;20093;-75
2023/04/08 00:35:45;;;;;;;13.48;9.15;;;;;;;;;;5074372;28;20067;-74
2023/04/08 00:38:11;;;;;;;14.05;9.15;;;;;;;;;;5088042;28;20044;-75
2023/04/08 00:40:37;;;;;;;12.85;9.35;;;;;;;;;;5087500;28;20036;-75
2023/04/08 00:43:03;;;;;;;14.48;9.68;;;;;;;;;;5077944;28;20079;-74
2023/04/08 00:45:30;;;;;;;13.73;9.30;;;;;;;;;;5086038;28;20040;-75
2023/04/08 00:47:56;;;;;;;13.38;8.88;;;;;;;;;;5081134;28;20105;-75
2023/04/08 00:50:22;;;;;;;13.18;9.65;;;;;;;;;;5085204;28;20448;-75
2023/04/08 00:52:48;;;;;;;14.23;9.95;;;;;;;;;;5091548;28;20360;-75
2023/04/08 00:55:14;;;;;;;17.80;10.13;;;;;;;;;;5059093;28;20091;-75
2023/04/08 00:57:40;;;;;;;14.57;9.73;;;;;;;;;;5083101;28;20052;-75
2023/04/08 01:00:08;;;;;;;14.20;9.98;;;;;;;;;;5078317;28;20089;-75
2023/04/08 01:02:34;;;;;;;15.85;10.63;;;;;;;;;;5085224;28;20044;-75
2023/04/08 01:05:06;;;;;;;15.43;10.82;;;;;;;;;;5094800;28;20378;-75
2023/04/08 01:07:34;;;;;;;14.48;10.05;;;;;;;;;;5089087;28;20092;-74
2023/04/08 01:10:05;;;;;;;14.93;10.77;;;;;;;;;;5099952;28;20043;-75
2023/04/08 01:12:32;;;;;;;20.02;10.90;;;;;;;;;;5095997;28;20112;-75
2023/04/08 01:15:08;;;;;;;17.35;10.30;;;;;;;;;;5107081;28;20060;-75
2023/04/08 01:17:35;;;;;;;14.80;10.20;;;;;;;;;;5091900;28;20063;-75
2023/04/08 01:20:03;;;;;;;17.35;10.38;;;;;;;;;;5084657;28;20538;-74
2023/04/08 01:22:29;;;;;;;16.25;11.38;;;;;;;;;;5093447;28;20135;-75
2023/04/08 01:24:59;;;;;;;18.33;11.75;;;;;;;;;;5094885;28;20044;-75
2023/04/08 01:27:26;;;;;;;17.50;11.13;;;;;;;;;;5081236;28;20048;-74
2023/04/08 01:29:53;;;;;;;17.02;11.57;;;;;;;;;;5090072;28;20044;-74
2023/04/08 01:32:19;;;;;;;14.85;10.90;;;;;;;;;;5087637;28;20044;-74
2023/04/08 01:34:46;;;;;;;18.83;12.98;;;;;;;;;;5084951;28;20037;-74
2023/04/08 01:37:13;;;;;;;19.05;11.75;;;;;;;;;;5091993;28;20109;-75
2023/04/08 01:39:41;;;;;;;17.77;12.13;;;;;;;;;;5082582;28;20470;-74
2023/04/08 01:42:07;;;;;;;20.17;12.05;;;;;;;;;;5089790;28;20039;-74
2023/04/08 01:44:35;;;;;;;17.23;12.23;;;;;;;;;;5092315;28;20470;-74
2023/04/08 01:47:02;;;;;;;17.40;11.75;;;;;;;;;;5087774;28;20072;-75
2023/04/08 01:49:28;;;;;;;18.70;12.27;;;;;;;;;;5080916;28;20141;-74
2023/04/08 01:51:56;;;;;;;17.15;11.68;;;;;;;;;;5087456;28;20352;-75
2023/04/08 01:54:22;;;;;;;17.17;11.50;;;;;;;;;;5086215;28;20036;-74
2023/04/08 01:56:50;;;;;;;19.05;12.85;;;;;;;;;;5083644;28;20043;-74
2023/04/08 01:59:16;;;;;;;15.88;11.35;;;;;;;;;;5089364;28;20036;-75
2023/04/08 02:01:44;;;;;;;15.85;11.10;;;;;;;;;;5093891;28;20374;-74
2023/04/08 02:04:10;;;;;;;17.15;12.10;;;;;;;;;;5084330;28;20055;-74
2023/04/08 02:06:36;;;;;;;18.25;11.57;;;;;;;;;;5083222;28;20123;-74
2023/04/08 02:09:03;;;;;;;14.98;10.57;;;;;;;;;;5084238;28;20045;-75
2023/04/08 02:11:29;;;;;;;18.05;10.65;;;;;;;;;;5079863;28;20044;-74
2023/04/08 02:13:55;;;;;;;16.17;10.98;;;;;;;;;;5092595;28;20423;-74
2023/04/08 02:16:21;;;;;;;14.82;10.15;;;;;;;;;;5086054;28;20577;-74
2023/04/08 02:18:54;;;;;;;15.25;10.25;;;;;;;;;;5073857;28;20059;-74
2023/04/08 02:21:21;;;;;;;15.70;10.20;;;;;;;;;;5083878;28;20048;-74
2023/04/08 02:23:50;;;;;;;13.88;10.30;;;;;;;;;;5081616;28;20156;-74
2023/04/08 02:26:18;;;;;;;15.27;10.85;;;;;;;;;;5078836;28;20040;-75
2023/04/08 02:28:45;;;;;;;16.40;11.38;;;;;;;;;;5091457;28;20120;-74
2023/04/08 02:31:15;;;;;;;15.32;10.95;;;;;;;;;;5083181;28;20428;-74
2023/04/08 02:33:42;;;;;;;14.82;10.75;;;;;;;;;;5075704;28;20479;-74
2023/04/08 02:36:09;;;;;;;15.63;11.18;;;;;;;;;;5092525;28;20046;-74
2023/04/08 02:38:35;;;;;;;16.17;11.20;;;;;;;;;;5079806;28;20048;-74
2023/04/08 02:41:01;;;;;;;16.45;11.48;;;;;;;;;;5083958;28;20490;-74
2023/04/08 02:43:36;;;;;;;16.65;11.43;;;;;;;;;;5085570;28;20167;-74
2023/04/08 02:46:02;;;;;;;16.10;11.40;;;;;;;;;;5085679;28;20086;-75
2023/04/08 02:48:29;;;;;;;15.98;11.27;;;;;;;;;;5083506;28;20440;-75
2023/04/08 02:50:56;;;;;;;19.30;12.82;;;;;;;;;;5086224;28;20044;-75
2023/04/08 02:53:22;;;;;;;17.83;12.35;;;;;;;;;;5088590;28;20040;-74
2023/04/08 02:55:48;;;;;;;18.90;12.68;;;;;;;;;;5074597;28;20052;-74
2023/04/08 02:58:15;;;;;;;19.73;12.68;;;;;;;;;;5086100;28;20448;-74
2023/04/08 03:00:41;;;;;;;22.90;14.27;;;;;;;;;;5073310;28;20040;-74
2023/04/08 03:03:07;;;;;;;20.10;13.65;;;;;;;;;;5092479;28;20121;-74
2023/04/08 03:05:33;;;;;;;23.42;14.52;;;;;;;;;;5085913;28;20138;-74
2023/04/08 03:08:00;;;;;;;24.80;15.80;;;;;;;;;;5067662;28;20132;-74
2023/04/08 03:10:26;;;;;;;23.10;15.32;;;;;;;;;;5089830;28;20047;-74
2023/04/08 03:12:52;;;;;;;23.85;15.73;;;;;;;;;;5093101;28;20059;-75
2023/04/08 03:15:18;;;;;;;23.88;15.43;;;;;;;;;;5091582;28;20032;-74
2023/04/08 03:17:44;;;;;;;27.38;15.23;;;;;;;;;;5083296;28;20056;-74
2023/04/08 03:20:10;;;;;;;21.65;14.02;;;;;;;;;;5089259;28;20120;-74
2023/04/08 03:22:37;;;;;;;22.15;14.23;;;;;;;;;;5092859;28;20055;-74
2023/04/08 03:25:03;;;;;;;22.42;13.80;;;;;;;;;;5095747;28;20037;-74
2023/04/08 03:27:29;;;;;;;19.67;13.63;;;;;;;;;;5092528;28;20044;-74
2023/04/08 03:29:56;;;;;;;19.67;12.73;;;;;;;;;;5089691;28;20044;-75
2023/04/08 03:32:22;;;;;;;21.20;13.13;;;;;;;;;;5086727;28;20044;-74
2023/04/08 03:34:52;;;;;;;19.90;13.65;;;;;;;;;;5079729;28;20037;-74
2023/04/08 03:37:18;;;;;;;21.15;13.45;;;;;;;;;;5087393;28;20471;-74
2023/04/08 03:39:45;;;;;;;22.17;14.05;;;;;;;;;;5090816;28;20058;-74
2023/04/08 03:42:11;;;;;;;24.15;14.43;;;;;;;;;;5096469;28;20051;-74
2023/04/08 03:44:37;;;;;;;22.35;15.48;;;;;;;;;;5091110;28;20055;-74
2023/04/08 03:47:03;;;;;;;23.92;15.90;;;;;;;;;;5095250;28;20394;-74
2023/04/08 03:49:29;;;;;;;23.42;14.82;;;;;;;;;;5088666;28;20139;-74
2023/04/08 03:51:55;;;;;;;27.02;15.65;;;;;;;;;;5091059;28;20127;-74
2023/04/08 03:54:21;;;;;;;23.77;14.85;;;;;;;;;;5084131;28;20037;-74
2023/04/08 03:56:49;;;;;;;22.77;15.02;;;;;;;;;;5083274;28;20120;-74
2023/04/08 03:59:15;;;;;;;25.38;14.77;;;;;;;;;;5091343;28;20040;-75
2023/04/08 04:01:41;;;;;;;21.67;13.32;;;;;;;;;;5088729;28;20047;-74
2023/04/08 04:04:07;;;;;;;20.63;14.60;;;;;;;;;;5078357;28;20045;-74
2023/04/08 04:06:33;;;;;;;21.25;13.93;;;;;;;;;;5084692;28;20535;-74
2023/04/08 04:08:59;;;;;;;21.88;14.73;;;;;;;;;;5081564;28;20082;-74
2023/04/08 04:11:26;;;;;;;24.35;15.40;;;;;;;;;;5090787;28;20474;-75
2023/04/08 04:13:52;;;;;;;25.48;15.68;;;;;;;;;;5092593;28;20052;-75
2023/04/08 04:16:18;;;;;;;24.05;15.65;;;;;;;;;;5087116;28;20044;-75
2023/04/08 04:18:44;;;;;;;25.95;15.77;;;;;;;;;;5085601;28;20056;-75
2023/04/08 04:21:10;;;;;;;29.45;17.13;;;;;;;;;;5081843;28;20053;-74
2023/04/08 04:23:36;;;;;;;25.50;17.55;;;;;;;;;;5089849;28;20055;-75
2023/04/08 04:26:07;;;;;;;25.90;16.15;;;;;;;;;;5064496;28;20048;-75
2023/04/08 04:28:33;;;;;;;25.40;16.45;;;;;;;;;;5080898;28;20055;-75
2023/04/08 04:30:59;;;;;;;23.20;15.75;;;;;;;;;;5081764;28;20048;-75
2023/04/08 04:33:25;;;;;;;28.75;16.98;;;;;;;;;;5086857;28;20040;-75
2023/04/08 04:35:51;;;;;;;25.67;15.90;;;;;;;;;;5085337;28;20040;-74
2023/04/08 04:38:17;;;;;;;27.52;16.90;;;;;;;;;;5074148;28;20413;-75
2023/04/08 04:40:43;;;;;;;24.75;16.45;;;;;;;;;;5067461;28;20558;-75
2023/04/08 04:43:09;;;;;;;24.15;16.08;;;;;;;;;;5089062;28;20069;-75
2023/04/08 04:45:35;;;;;;;28.17;16.85;;;;;;;;;;5086545;28;20119;-74
2023/04/08 04:48:02;;;;;;;26.42;17.60;;;;;;;;;;5090673;28;20111;-75
2023/04/08 04:50:29;;;;;;;31.80;17.60;;;;;;;;;;5085397;28;20126;-75
2023/04/08 04:52:55;;;;;;;26.77;16.75;;;;;;;;;;5088954;28;20127;-75
2023/04/08 04:55:21;;;;;;;29.85;18.15;;;;;;;;;;5080115;28;20045;-75
2023/04/08 04:57:48;;;;;;;27.58;17.55;;;;;;;;;;5090987;28;20042;-75
2023/04/08 05:00:15;;;;;;;25.45;16.98;;;;;;;;;;5089735;28;20161;-75
2023/04/08 05:02:41;;;;;;;26.58;16.02;;;;;;;;;;5082981;28;20478;-75
2023/04/08 05:05:07;;;;;;;30.92;17.70;;;;;;;;;;5093991;28;20088;-74
2023/04/08 05:07:36;;;;;;;23.98;15.60;;;;;;;;;;5082151;28;20027;-74
2023/04/08 05:10:03;;;;;;;25.23;16.23;;;;;;;;;;5094365;28;20071;-74
2023/04/08 05:12:29;;;;;;;26.70;16.38;;;;;;;;;;5088100;28;20044;-74
2023/04/08 05:14:58;;;;;;;22.13;15.02;;;;;;;;;;5083766;28;20411;-74
2023/04/08 05:17:24;;;;;;;23.38;14.65;;;;;;;;;;5094847;28;20482;-74
2023/04/08 05:19:52;;;;;;;24.52;15.50;;;;;;;;;;5090096;28;20040;-74
2023/04/08 05:22:18;;;;;;;22.63;14.50;;;;;;;;;;5089945;28;20105;-74
2023/04/08 05:24:44;;;;;;;21.90;14.40;;;;;;;;;;5086318;28;20093;-74
2023/04/08 05:27:10;;;;;;;21.98;14.85;;;;;;;;;;5084107;28;20040;-74
2023/04/08 05:29:36;;;;;;;24.50;14.80;;;;;;;;;;5077455;28;20037;-75
2023/04/08 05:32:02;;;;;;;27.08;15.38;;;;;;;;;;5079250;28;20123;-75
2023/04/08 05:34:30;;;;;;;25.60;15.45;;;;;;;;;;5060395;28;20398;-75
2023/04/08 05:36:56;;;;;;;28.05;16.33;;;;;;;;;;5091804;28;20075;-75
2023/04/08 05:39:22;;;;;;;24.02;15.18;;;;;;;;;;5082496;28;20127;-75
2023/04/08 05:41:48;;;;;;;25.63;15.23;;;;;;;;;;5090424;28;20060;-75
2023/04/08 05:44:14;;;;;;;22.33;14.55;;;;;;;;;;5083028;28;20048;-75
2023/04/08 05:46:40;;;;;;;23.90;14.88;;;;;;;;;;5077746;28;20045;-75
2023/04/08 05:49:07;;;;;;;22.85;15.27;;;;;;;;;;5090989;28;20382;-75
2023/04/08 05:51:33;;;;;;;23.52;15.40;;;;;;;;;;5087648;28;20487;-75
2023/04/08 05:53:59;;;;;;;25.38;15.48;;;;;;;;;;5086942;28;20189;-75
2023/04/08 05:56:25;;;;;;;26.92;15.52;;;;;;;;;;5078806;28;20166;-75
2023/04/08 05:58:51;;;;;;;25.55;15.90;;;;;;;;;;5081089;28;20115;-75
2023/04/08 06:01:17;;;;;;;24.88;16.15;;;;;;;;;;5093223;28;20074;-74
2023/04/08 06:03:43;;;;;;;25.15;15.35;;;;;;;;;;5088302;28;20036;-74
2023/04/08 06:06:10;;;;;;;27.13;16.77;;;;;;;;;;5084383;28;20181;-75
2023/04/08 06:08:36;;;;;;;26.02;15.82;;;;;;;;;;5088105;28;20072;-75
2023/04/08 06:11:04;;;;;;;29.85;17.83;;;;;;;;;;5090492;28;20040;-75
2023/04/08 06:13:30;;;;;;;30.10;18.02;;;;;;;;;;5087620;28;20036;-75
2023/04/08 06:15:56;;;;;;;31.05;18.27;;;;;;;;;;5078357;28;20514;-74
2023/04/08 06:18:22;;;;;;;31.08;19.38;;;;;;;;;;5082639;28;20047;-74
2023/04/08 06:20:48;;;;;;;29.80;18.45;;;;;;;;;;5088714;28;20118;-75
2023/04/08 06:23:14;;;;;;;30.55;18.33;;;;;;;;;;5085670;28;20646;-75
2023/04/08 06:25:40;;;;;;;28.27;18.08;;;;;;;;;;5084925;28;20040;-75
2023/04/08 06:28:07;;;;;;;28.73;17.35;;;;;;;;;;5091084;28;20048;-74
2023/04/08 06:30:33;;;;;;;27.77;17.75;;;;;;;;;;5073633;28;20482;-81
2023/04/08 06:32:59;;;;;;;29.98;18.25;;;;;;;;;;5077446;28;20052;-78
2023/04/08 06:35:26;;;;;;;29.77;17.00;;;;;;;;;;5092722;28;20427;-75
2023/04/08 06:37:52;;;;;;;30.17;17.88;;;;;;;;;;5085210;28;20077;-75
2023/04/08 06:40:18;;;;;;;32.42;18.58;;;;;;;;;;5077906;28;20044;-76
2023/04/08 06:42:47;;;;;;;33.15;19.27;;;;;;;;;;5078394;28;20044;-75
2023/04/08 06:45:14;;;;;;;30.58;18.52;;;;;;;;;;5079596;28;20032;-74
2023/04/08 06:47:40;;;;;;;32.40;19.88;;;;;;;;;;5079421;28;20044;-75
2023/04/08 06:50:06;;;;;;;29.60;18.95;;;;;;;;;;5084223;28;20048;-74
2023/04/08 06:52:32;;;;;;;30.10;17.08;;;;;;;;;;5079609;28;20187;-74
2023/04/08 06:54:58;;;;;;;33.13;18.58;;;;;;;;;;5080646;28;20482;-75
2023/04/08 06:57:24;;;;;;;29.95;17.65;;;;;;;;;;5082344;28;20045;-75
2023/04/08 06:59:52;;;;;;;28.95;17.15;;;;;;;;;;5080042;28;20055;-75
2023/04/08 07:02:18;;;;;;;29.27;17.85;;;;;;;;;;5081917;28;20483;-75
2023/04/08 07:04:44;;;;;;;27.50;16.98;;;;;;;;;;5082025;28;20411;-75
2023/04/08 07:07:10;;;;;;;31.52;18.42;;;;;;;;;;5085846;28;20117;-76
2023/04/08 07:09:37;;;;;;;33.33;19.25;;;;;;;;;;5084843;28;20036;-75
2023/04/08 07:12:03;;;;;;;31.35;17.73;;;;;;;;;;5095622;28;20383;-75
2023/04/08 07:14:30;;;;;;;27.08;17.05;;;;;;;;;;5094764;28;20488;-75
2023/04/08 07:16:56;;;;;;;27.17;16.73;;;;;;;;;;5094563;28;20056;-74
2023/04/08 07:19:23;;;;;;;22.75;13.82;;;;;;;;;;5088244;28;20048;-75
2023/04/08 07:21:49;;;;;;;21.88;13.25;;;;;;;;;;5090874;28;20074;-74
2023/04/08 07:24:15;;;;;;;19.50;12.32;;;;;;;;;;5082915;28;20542;-76
2023/04/08 07:26:41;;;;;;;22.08;12.75;;;;;;;;;;5085905;28;20127;-75
2023/04/08 07:29:07;;;;;;;19.90;12.55;;;;;;;;;;5087527;28;20047;-78
2023/04/08 07:31:33;;;;;;;19.75;12.68;;;;;;;;;;5082247;28;20044;-75
2023/04/08 07:33:59;;;;;;;18.15;11.77;;;;;;;;;;5090850;28;20485;-75
2023/04/08 07:36:25;;;;;;;18.08;11.35;;;;;;;;;;5093326;28;20051;-75
2023/04/08 07:38:51;;;;;;;15.75;10.85;;;;;;;;;;5085628;28;20047;-78
2023/04/08 07:41:17;;;;;;;16.23;11.38;;;;;;;;;;5085619;28;20083;-76
2023/04/08 07:43:44;;;;;;;18.45;11.40;;;;;;;;;;5089158;28;20040;-76
2023/04/08 07:46:10;;;;;;;17.05;10.93;;;;;;;;;;5085700;28;20041;-75
2023/04/08 07:48:36;;;;;;;14.95;11.18;;;;;;;;;;5093168;28;20044;-75
2023/04/08 07:51:06;;;;;;;16.15;10.77;;;;;;;;;;5087586;28;20044;-77
2023/04/08 07:53:33;;;;;;;16.42;10.55;;;;;;;;;;5076900;28;20044;-76
2023/04/08 07:55:59;;;;;;;16.08;10.60;;;;;;;;;;5085686;28;20049;-76
2023/04/08 07:58:26;;;;;;;19.65;11.25;;;;;;;;;;5078006;28;20044;-76
2023/04/08 08:00:52;;;;;;;17.33;10.82;;;;;;;;;;5090417;28;20068;-76
2023/04/08 08:03:18;;;;;;;14.98;10.60;;;;;;;;;;5085618;28;20039;-76
2023/04/08 08:05:44;;;;;;;15.55;10.30;;;;;;;;;;5080734;28;20033;-76
2023/04/08 08:08:10;;;;;;;15.13;10.55;;;;;;;;;;5078147;28;20356;-76
2023/04/08 08:10:40;;;;;;;13.80;9.90;;;;;;;;;;5086155;28;20135;-76
2023/04/08 08:13:07;;;;;;;15.35;10.75;;;;;;;;;;5083025;28;20047;-76
2023/04/08 08:15:33;;;;;;;14.55;10.05;;;;;;;;;;5077814;28;20062;-76
2023/04/08 08:17:59;;;;;;;14.48;10.48;;;;;;;;;;5079597;28;20498;-77
2023/04/08 08:20:26;;;;;;;15.23;10.07;;;;;;;;;;5081979;28;20119;-76
2023/04/08 08:22:52;;;;;;;13.88;10.07;;;;;;;;;;5073648;28;20048;-76
2023/04/08 08:25:18;;;;;;;15.15;10.90;;;;;;;;;;5079978;28;20047;-76
2023/04/08 08:27:44;;;;;;;14.52;10.10;;;;;;;;;;5080303;28;20047;-76
2023/04/08 08:30:10;;;;;;;15.75;10.77;;;;;;;;;;5079440;28;20123;-77
2023/04/08 08:32:36;;;;;;;14.55;10.02;;;;;;;;;;5082835;28;21587;-77
2023/04/08 08:35:03;;;;;;;14.75;10.38;;;;;;;;;;5081077;28;20478;-77
2023/04/08 08:37:29;;;;;;;14.60;9.82;;;;;;;;;;5091515;28;20040;-77
2023/04/08 08:39:55;;;;;;;14.63;10.35;;;;;;;;;;5085619;28;20079;-76
2023/04/08 08:42:25;;;;;;;16.23;10.43;;;;;;;;;;5083003;28;20165;-79
2023/04/08 08:44:51;;;;;;;14.25;10.60;;;;;;;;;;5080556;28;20056;-77
2023/04/08 08:47:17;;;;;;;17.15;10.70;;;;;;;;;;5082517;28;20040;-76
2023/04/08 08:49:44;;;;;;;15.35;11.63;;;;;;;;;;5084236;28;20170;-76
2023/04/08 08:52:10;;;;;;;13.90;10.32;;;;;;;;;;5076593;28;20045;-76
2023/04/08 08:54:37;;;;;;;16.70;11.50;;;;;;;;;;5092079;28;20040;-78
2023/04/08 08:57:03;;;;;;;13.85;10.18;;;;;;;;;;5089555;28;20049;-77
2023/04/08 08:59:29;;;;;;;15.02;10.93;;;;;;;;;;5086777;28;20036;-77
2023/04/08 09:01:55;;;;;;;14.43;9.85;;;;;;;;;;5079451;28;20133;-77
2023/04/08 09:04:22;;;;;;;16.45;11.15;;;;;;;;;;5087552;28;20032;-77
2023/04/08 09:07:08;;;;;;;15.30;10.52;;;;;;;;;;5085737;28;20367;-76
2023/04/08 09:09:52;;;;;;;14.88;10.35;;;;;;;;;;5082426;28;20051;-77
2023/04/08 09:12:19;;;;;;;15.38;10.77;;;;;;;;;;5093615;28;20082;-76
2023/04/08 09:14:45;;;;;;;14.98;9.82;;;;;;;;;;5094556;28;20389;-76
2023/04/08 09:17:11;;;;;;;16.13;10.25;;;;;;;;;;5079683;28;20444;-76
2023/04/08 09:19:37;;;;;;;16.13;11.82;;;;;;;;;;5077391;28;20097;-75
2023/04/08 09:22:11;;;;;;;15.00;10.90;;;;;;;;;;5079243;28;20035;-76
2023/04/08 09:24:37;;;;;;;16.95;11.38;;;;;;;;;;5078136;28;20128;-76
2023/04/08 09:27:05;;;;;;;16.95;12.00;;;;;;;;;;5078309;28;20099;-75
2023/04/08 09:29:33;;;;;;;15.77;11.10;;;;;;;;;;5079575;28;20051;-75
2023/04/08 09:32:00;;;;;;;18.08;11.77;;;;;;;;;;5081991;28;20060;-76
2023/04/08 09:34:27;;;;;;;17.85;12.30;;;;;;;;;;5080586;28;20048;-75
2023/04/08 09:36:54;;;;;;;15.95;10.80;;;;;;;;;;5078400;28;20049;-76
2023/04/08 09:39:20;;;;;;;16.65;11.27;;;;;;;;;;5073961;28;20036;-75
2023/04/08 09:41:50;;;;;;;18.23;12.00;;;;;;;;;;5077827;28;20402;-75
2023/04/08 09:44:17;;;;;;;16.60;11.70;;;;;;;;;;5083861;28;20106;-81
2023/04/08 09:46:51;;;;;;;14.85;10.65;;;;;;;;;;5080396;28;20381;-76
2023/04/08 09:49:26;;;;;;;16.52;11.48;;;;;;;;;;5078279;28;20036;-76
2023/04/08 09:52:03;;;;;;;13.90;10.57;;;;;;;;;;5076182;28;20058;-76
2023/04/08 09:54:31;;;;;;;15.98;10.77;;;;;;;;;;5081319;28;21022;-76
2023/04/08 09:57:17;;;;;;;15.88;10.48;;;;;;;;;;5089079;28;20040;-76
2023/04/08 09:59:50;;;;;;;15.60;10.40;;;;;;;;;;5085441;28;20044;-76
2023/04/08 10:02:18;;;;;;;15.60;10.02;;;;;;;;;;5080112;28;20051;-75
2023/04/08 10:04:48;;;;;;;15.30;10.32;;;;;;;;;;5080982;28;20105;-75
2023/04/08 10:07:14;;;;;;;14.43;9.82;;;;;;;;;;5095136;28;20036;-76
2023/04/08 10:09:42;;;;;;;17.00;10.68;;;;;;;;;;5093090;28;20494;-76
2023/04/08 10:12:08;;;;;;;15.27;10.40;;;;;;;;;;5085771;28;20080;-76
2023/04/08 10:14:34;;;;;;;15.95;11.18;;;;;;;;;;5087987;28;20102;-76
2023/04/08 10:17:19;;;;;;;17.60;10.70;;;;;;;;;;5079146;28;20585;-76
2023/04/08 10:19:46;;;;;;;16.25;10.30;;;;;;;;;;5084166;28;20039;-76
2023/04/08 10:22:31;;;;;;;16.05;10.63;;;;;;;;;;5083568;28;20048;-77
2023/04/08 10:25:18;;;;;;;15.68;10.30;;;;;;;;;;5081777;28;20048;-77
2023/04/08 10:27:45;;;;;;;17.02;11.32;;;;;;;;;;5082106;28;20466;-76
2023/04/08 10:30:32;;;;;;;15.32;10.30;;;;;;;;;;5079541;28;20086;-76
2023/04/08 10:32:58;;;;;;;16.05;10.10;;;;;;;;;;5076838;28;20348;-76
2023/04/08 10:35:41;;;;;;;16.75;10.88;;;;;;;;;;5079113;28;20036;-76
2023/04/08 10:38:08;;;;;;;16.48;10.90;;;;;;;;;;5061555;28;20149;-76
2023/04/08 10:40:38;;;;;;;18.17;11.07;;;;;;;;;;5078418;28;20033;-76
2023/04/08 10:43:04;;;;;;;18.90;10.10;;;;;;;;;;5078564;28;20040;-76
2023/04/08 10:45:30;;;;;;;18.67;11.27;;;;;;;;;;5078920;28;20128;-76
2023/04/08 10:47:57;;;;;;;17.38;11.05;;;;;;;;;;5085695;28;20048;-76
2023/04/08 10:50:23;;;;;;;18.15;11.75;;;;;;;;;;5079647;28;20044;-76
2023/04/08 10:52:53;;;;;;;20.63;11.82;;;;;;;;;;5078874;28;20042;-78
2023/04/08 10:55:27;;;;;;;21.65;12.43;;;;;;;;;;5084915;28;20039;-75
2023/04/08 10:57:53;;;;;;;16.98;11.43;;;;;;;;;;5086254;28;20050;-76
2023/04/08 11:00:31;;;;;;;17.60;10.55;;;;;;;;;;5085070;28;20111;-76
2023/04/08 11:03:07;;;;;;;16.77;10.82;;;;;;;;;;5076985;28;20124;-76
2023/04/08 11:05:35;;;;;;;17.88;10.98;;;;;;;;;;5086546;28;20114;-76
2023/04/08 11:08:01;;;;;;;19.90;11.95;;;;;;;;;;5085583;28;20475;-76
2023/04/08 11:10:28;;;;;;;22.50;13.07;;;;;;;;;;5081701;28;20044;-76
2023/04/08 11:12:54;;;;;;;26.02;14.93;;;;;;;;;;5084172;28;20071;-76
2023/04/08 11:15:21;;;;;;;24.90;14.80;;;;;;;;;;5086933;28;20119;-75
2023/04/08 11:17:48;;;;;;;23.77;14.02;;;;;;;;;;5077941;28;20048;-76
2023/04/08 11:20:14;;;;;;;23.95;14.07;;;;;;;;;;5093340;28;20124;-75
2023/04/08 11:22:40;;;;;;;23.90;14.70;;;;;;;;;;5089538;28;20075;-76
2023/04/08 11:25:09;;;;;;;24.15;15.38;;;;;;;;;;5085667;28;20389;-76
2023/04/08 11:27:35;;;;;;;30.63;15.98;;;;;;;;;;5087556;28;20078;-76
2023/04/08 11:30:02;;;;;;;26.75;15.38;;;;;;;;;;5088869;28;20075;-77
2023/04/08 11:32:29;;;;;;;25.80;14.82;;;;;;;;;;5079841;28;20513;-76
2023/04/08 11:34:55;;;;;;;28.73;17.08;;;;;;;;;;5075139;28;20059;-75
2023/04/08 11:37:21;;;;;;;31.38;17.52;;;;;;;;;;5076379;28;20136;-76
2023/04/08 11:39:47;;;;;;;30.88;17.02;;;;;;;;;;5088086;28;20046;-77
2023/04/08 11:42:26;;;;;;;28.55;16.52;;;;;;;;;;5078694;28;20087;-75
2023/04/08 11:44:52;;;;;;;31.20;16.00;;;;;;;;;;5090640;28;20067;-75
2023/04/08 11:47:18;;;;;;;27.48;15.25;;;;;;;;;;5089017;28;20059;-76
2023/04/08 11:49:45;;;;;;;25.23;14.48;;;;;;;;;;5085974;28;20044;-78
2023/04/08 11:52:11;;;;;;;25.65;15.30;;;;;;;;;;5087704;28;20043;-78
2023/04/08 11:54:40;;;;;;;27.15;16.25;;;;;;;;;;5086539;28;20067;-77
2023/04/08 11:57:08;;;;;;;30.77;15.73;;;;;;;;;;5080851;28;20097;-77
2023/04/08 11:59:35;;;;;;;27.55;15.27;;;;;;;;;;5082900;28;20040;-78
2023/04/08 12:02:01;;;;;;;28.58;16.23;;;;;;;;;;5093025;28;20040;-77
2023/04/08 12:04:28;;;;;;;25.55;14.95;;;;;;;;;;5086472;28;20040;-76
2023/04/08 12:06:54;;;;;;;28.25;15.18;;;;;;;;;;5085200;28;20059;-75
2023/04/08 12:09:21;;;;;;;25.73;15.10;;;;;;;;;;5084105;28;20470;-75
2023/04/08 12:11:47;;;;;;;25.08;14.75;;;;;;;;;;5075878;28;20055;-75
2023/04/08 12:14:13;;;;;;;25.80;14.70;;;;;;;;;;5090467;28;20036;-75
2023/04/08 12:16:39;;;;;;;22.40;13.15;;;;;;;;;;5084422;28;20049;-76
2023/04/08 12:19:06;;;;;;;22.63;13.52;;;;;;;;;;5084121;28;20040;-76
2023/04/08 12:21:33;;;;;;;22.40;13.52;;;;;;;;;;5085044;28;20124;-76
2023/04/08 12:24:00;;;;;;;22.23;13.68;;;;;;;;;;5090300;28;20043;-76
2023/04/08 12:26:26;;;;;;;23.50;14.10;;;;;;;;;;5090936;28;20470;-76
2023/04/08 12:28:52;;;;;;;23.48;13.57;;;;;;;;;;5081858;28;20040;-76
2023/04/08 12:31:18;;;;;;;19.88;12.63;;;;;;;;;;5079205;28;20044;-76
2023/04/08 12:33:44;;;;;;;20.63;12.75;;;;;;;;;;5082375;28;20048;-80
2023/04/08 12:36:10;;;;;;;21.02;12.82;;;;;;;;;;5060776;28;20079;-77
2023/04/08 12:38:37;;;;;;;25.48;13.77;;;;;;;;;;5088577;28;20484;-78
2023/04/08 12:41:03;;;;;;;24.58;13.27;;;;;;;;;;5087498;28;20082;-77
2023/04/08 12:43:31;;;;;;;23.30;13.52;;;;;;;;;;5081713;28;20105;-77
2023/04/08 12:45:57;;;;;;;26.25;14.90;;;;;;;;;;5082139;28;20048;-77
2023/04/08 12:48:23;;;;;;;21.10;12.93;;;;;;;;;;5081969;28;20178;-76
2023/04/08 12:50:49;;;;;;;20.85;12.77;;;;;;;;;;5081515;28;20052;-77
2023/04/08 12:53:15;;;;;;;20.85;12.18;;;;;;;;;;5078924;28;20063;-77
2023/04/08 12:55:41;;;;;;;19.20;11.77;;;;;;;;;;5080959;28;20044;-77
2023/04/08 12:58:07;;;;;;;21.52;12.32;;;;;;;;;;5094127;28;20040;-77
2023/04/08 13:00:36;;;;;;;16.98;11.32;;;;;;;;;;5086358;28;20051;-77
2023/04/08 13:03:02;;;;;;;20.83;11.95;;;;;;;;;;5088862;28;20076;-77
2023/04/08 13:05:31;;;;;;;15.35;10.57;;;;;;;;;;5075221;28;20063;-77
2023/04/08 13:07:57;;;;;;;16.55;10.93;;;;;;;;;;5095002;28;20441;-77
2023/04/08 13:10:23;;;;;;;16.80;10.40;;;;;;;;;;5088596;28;20478;-77
2023/04/08 13:12:49;;;;;;;17.02;11.30;;;;;;;;;;5085822;28;20087;-76
2023/04/08 13:15:15;;;;;;;17.50;10.07;;;;;;;;;;5086761;28;20047;-77
2023/04/08 13:17:42;;;;;;;20.08;12.25;;;;;;;;;;5082001;28;20051;-77
2023/04/08 13:20:09;;;;;;;16.10;10.38;;;;;;;;;;5081850;28;20090;-77
2023/04/08 13:22:35;;;;;;;15.20;10.98;;;;;;;;;;5084105;28;20060;-77
2023/04/08 13:25:01;;;;;;;16.40;10.13;;;;;;;;;;5096363;28;20521;-77
2023/04/08 13:27:27;;;;;;;16.90;11.65;;;;;;;;;;5100199;28;20040;-77
2023/04/08 13:29:54;;;;;;;15.90;10.60;;;;;;;;;;5094573;28;20539;-77
2023/04/08 13:32:20;;;;;;;15.40;10.02;;;;;;;;;;5093590;28;20056;-77
2023/04/08 13:34:46;;;;;;;16.08;10.00;;;;;;;;;;5090580;28;20129;-77
2023/04/08 13:37:12;;;;;;;14.15;9.60;;;;;;;;;;5074617;28;20075;-77
2023/04/08 13:39:38;;;;;;;14.98;10.23;;;;;;;;;;5094298;28;20036;-77
2023/04/08 13:42:04;;;;;;;14.70;9.45;;;;;;;;;;5094243;28;20047;-76
2023/04/08 13:44:32;;;;;;;13.95;9.82;;;;;;;;;;5093455;28;20520;-76
2023/04/08 13:46:58;;;;;;;16.30;9.80;;;;;;;;;;5094481;28;20173;-76
2023/04/08 13:49:24;;;;;;;15.30;9.73;;;;;;;;;;5094407;28;20055;-77
2023/04/08 13:51:51;;;;;;;15.63;10.65;;;;;;;;;;5089527;28;20072;-77
2023/04/08 13:54:17;;;;;;;15.75;10.50;;;;;;;;;;5082145;28;20040;-76
2023/04/08 13:56:43;;;;;;;16.13;11.05;;;;;;;;;;5093727;28;20089;-76
2023/04/08 13:59:09;;;;;;;14.27;10.60;;;;;;;;;;5093596;28;20117;-76
2023/04/08 14:01:35;;;;;;;17.45;10.95;;;;;;;;;;5093285;28;20123;-76
2023/04/08 14:04:01;;;;;;;17.83;10.88;;;;;;;;;;5091662;28;20124;-77
2023/04/08 14:06:27;;;;;;;15.23;11.32;;;;;;;;;;5093313;28;20083;-77
2023/04/08 14:08:53;;;;;;;14.23;11.20;;;;;;;;;;5093729;28;20538;-77
2023/04/08 14:11:20;;;;;;;17.02;10.82;;;;;;;;;;5091436;28;20035;-77
2023/04/08 14:13:46;;;;;;;15.75;11.25;;;;;;;;;;5078566;28;20124;-76
2023/04/08 14:16:12;;;;;;;15.95;11.20;;;;;;;;;;5090626;28;20135;-77
2023/04/08 14:18:38;;;;;;;14.85;11.38;;;;;;;;;;5093743;28;20048;-79